sensor_id;sensor_type;location;lat;lon;timestamp;pressure;altitude;pressure_sealevel;temperature;humidity
56174;BME280;42058;52.308;20.924;2024-03-29T00:00:43;98866.17;;;9.25;100.00
56174;BME280;42058;52.308;20.924;2024-03-29T00:03:31;98871.65;;;9.28;100.00
56174;BME280;42058;52.308;20.924;2024-03-29T00:05:58;98879.45;;;9.29;100.00
56174;BME280;42058;52.308;20.924;2024-03-29T00:08:26;98887.45;;;9.31;100.00
56174;BME280;42058;52.308;20.924;2024-03-29T00:10:53;98890.03;;;9.32;100.00
56174;BME280;42058;52.308;20.924;2024-03-29T00:13:20;98897.82;;;9.33;100.00
56174;BME280;42058;52.308;20.924;2024-03-29T00:15:48;98901.43;;;9.35;100.00
56174;BME280;42058;52.308;20.924;2024-03-29T00:18:15;98906.14;;;9.35;100.00
56174;BME280;42058;52.308;20.924;2024-03-29T00:20:43;98910.45;;;9.36;100.00
56174;BME280;42058;52.308;20.924;2024-03-29T00:23:10;98916.50;;;9.38;100.00
56174;BME280;42058;52.308;20.924;2024-03-29T00:25:37;98919.46;;;9.38;100.00
56174;BME280;42058;52.308;20.924;2024-03-29T00:28:05;98924.84;;;9.39;100.00
56174;BME280;42058;52.308;20.924;2024-03-29T00:30:33;98929.73;;;9.40;100.00
56174;BME280;42058;52.308;20.924;2024-03-29T00:33:00;98934.27;;;9.40;100.00
56174;BME280;42058;52.308;20.924;2024-03-29T00:35:27;98939.60;;;9.38;100.00
56174;BME280;42058;52.308;20.924;2024-03-29T00:37:55;98945.76;;;9.38;100.00
56174;BME280;42058;52.308;20.924;2024-03-29T00:40:22;98947.05;;;9.36;100.00
56174;BME280;42058;52.308;20.924;2024-03-29T00:42:50;98955.85;;;9.35;100.00
56174;BME280;42058;52.308;20.924;2024-03-29T00:45:17;98962.90;;;9.34;100.00
56174;BME280;42058;52.308;20.924;2024-03-29T00:47:59;98966.45;;;9.33;100.00
56174;BME280;42058;52.308;20.924;2024-03-29T00:50:26;98971.24;;;9.31;100.00
56174;BME280;42058;52.308;20.924;2024-03-29T00:52:53;98979.26;;;9.28;100.00
56174;BME280;42058;52.308;20.924;2024-03-29T00:55:21;98978.99;;;9.27;100.00
56174;BME280;42058;52.308;20.924;2024-03-29T00:57:49;98985.55;;;9.24;100.00
56174;BME280;42058;52.308;20.924;2024-03-29T01:00:16;98991.55;;;9.23;100.00
56174;BME280;42058;52.308;20.924;2024-03-29T01:02:48;98995.64;;;9.22;100.00
56174;BME280;42058;52.308;20.924;2024-03-29T01:05:15;99003.27;;;9.20;100.00
56174;BME280;42058;52.308;20.924;2024-03-29T01:07:42;99006.31;;;9.18;100.00
56174;BME280;42058;52.308;20.924;2024-03-29T01:10:10;99014.07;;;9.17;100.00
56174;BME280;42058;52.308;20.924;2024-03-29T01:12:38;99016.60;;;9.15;100.00
56174;BME280;42058;52.308;20.924;2024-03-29T01:15:06;99025.02;;;9.14;100.00
56174;BME280;42058;52.308;20.924;2024-03-29T01:17:34;99034.17;;;9.13;100.00
56174;BME280;42058;52.308;20.924;2024-03-29T01:20:01;99043.66;;;9.12;100.00
56174;BME280;42058;52.308;20.924;2024-03-29T01:22:29;99051.73;;;9.11;100.00
56174;BME280;42058;52.308;20.924;2024-03-29T01:24:56;99055.55;;;9.08;100.00
56174;BME280;42058;52.308;20.924;2024-03-29T01:27:24;99060.58;;;9.05;100.00
56174;BME280;42058;52.308;20.924;2024-03-29T01:29:52;99061.59;;;9.01;100.00
56174;BME280;42058;52.308;20.924;2024-03-29T01:32:19;99063.15;;;8.98;100.00
56174;BME280;42058;52.308;20.924;2024-03-29T01:34:46;99069.73;;;8.95;100.00
56174;BME280;42058;52.308;20.924;2024-03-29T01:37:14;99077.92;;;8.91;100.00
56174;BME280;42058;52.308;20.924;2024-03-29T01:39:41;99082.06;;;8.89;100.00
56174;BME280;42058;52.308;20.924;2024-03-29T01:42:08;99090.54;;;8.87;100.00
56174;BME280;42058;52.308;20.924;2024-03-29T01:44:36;99091.67;;;8.85;100.00
56174;BME280;42058;52.308;20.924;2024-03-29T01:47:04;99096.98;;;8.83;100.00
56174;BME280;42058;52.308;20.924;2024-03-29T01:49:31;99098.45;;;8.81;100.00
56174;BME280;42058;52.308;20.924;2024-03-29T01:51:59;99105.31;;;8.80;100.00
56174;BME280;42058;52.308;20.924;2024-03-29T01:54:26;99106.80;;;8.78;100.00
56174;BME280;42058;52.308;20.924;2024-03-29T01:56:54;99112.27;;;8.77;100.00
56174;BME280;42058;52.308;20.924;2024-03-29T01:59:22;99113.59;;;8.75;100.00
56174;BME280;42058;52.308;20.924;2024-03-29T02:01:49;99117.63;;;8.74;100.00
56174;BME280;42058;52.308;20.924;2024-03-29T02:04:17;99119.74;;;8.74;100.00
56174;BME280;42058;52.308;20.924;2024-03-29T02:06:45;99123.79;;;8.73;100.00
56174;BME280;42058;52.308;20.924;2024-03-29T02:09:13;99123.28;;;8.73;100.00
56174;BME280;42058;52.308;20.924;2024-03-29T02:11:40;99130.44;;;8.73;100.00
56174;BME280;42058;52.308;20.924;2024-03-29T02:14:07;99141.29;;;8.73;100.00
56174;BME280;42058;52.308;20.924;2024-03-29T02:16:35;99144.10;;;8.72;100.00
56174;BME280;42058;52.308;20.924;2024-03-29T02:19:02;99144.84;;;8.72;100.00
56174;BME280;42058;52.308;20.924;2024-03-29T02:21:31;99149.23;;;8.71;100.00
56174;BME280;42058;52.308;20.924;2024-03-29T02:24:06;99149.10;;;8.70;100.00
56174;BME280;42058;52.308;20.924;2024-03-29T02:26:34;99150.04;;;8.68;100.00
56174;BME280;42058;52.308;20.924;2024-03-29T02:29:04;99155.77;;;8.69;100.00
56174;BME280;42058;52.308;20.924;2024-03-29T02:31:32;99159.30;;;8.68;100.00
56174;BME280;42058;52.308;20.924;2024-03-29T02:33:59;99162.63;;;8.68;100.00
56174;BME280;42058;52.308;20.924;2024-03-29T02:36:27;99171.04;;;8.68;100.00
56174;BME280;42058;52.308;20.924;2024-03-29T02:38:54;99180.32;;;8.67;100.00
56174;BME280;42058;52.308;20.924;2024-03-29T02:41:22;99188.36;;;8.67;100.00
56174;BME280;42058;52.308;20.924;2024-03-29T02:43:49;99195.00;;;8.67;100.00
56174;BME280;42058;52.308;20.924;2024-03-29T02:46:17;99197.61;;;8.68;100.00
56174;BME280;42058;52.308;20.924;2024-03-29T02:48:44;99203.70;;;8.69;100.00
56174;BME280;42058;52.308;20.924;2024-03-29T02:51:11;99212.77;;;8.69;100.00
56174;BME280;42058;52.308;20.924;2024-03-29T02:53:39;99215.62;;;8.68;100.00
56174;BME280;42058;52.308;20.924;2024-03-29T02:56:06;99221.89;;;8.68;100.00
56174;BME280;42058;52.308;20.924;2024-03-29T02:58:35;99226.56;;;8.70;100.00
56174;BME280;42058;52.308;20.924;2024-03-29T03:01:08;99235.63;;;8.70;100.00
56174;BME280;42058;52.308;20.924;2024-03-29T03:03:36;99240.85;;;8.71;100.00
56174;BME280;42058;52.308;20.924;2024-03-29T03:06:04;99242.60;;;8.71;100.00
56174;BME280;42058;52.308;20.924;2024-03-29T03:08:32;99247.08;;;8.72;100.00
56174;BME280;42058;52.308;20.924;2024-03-29T03:11:18;99246.05;;;8.72;100.00
56174;BME280;42058;52.308;20.924;2024-03-29T03:13:45;99250.04;;;8.73;100.00
56174;BME280;42058;52.308;20.924;2024-03-29T03:16:13;99256.13;;;8.74;100.00
56174;BME280;42058;52.308;20.924;2024-03-29T03:18:41;99257.13;;;8.75;100.00
56174;BME280;42058;52.308;20.924;2024-03-29T03:21:08;99263.91;;;8.76;100.00
56174;BME280;42058;52.308;20.924;2024-03-29T03:23:35;99269.39;;;8.75;100.00
56174;BME280;42058;52.308;20.924;2024-03-29T03:26:03;99278.88;;;8.73;100.00
56174;BME280;42058;52.308;20.924;2024-03-29T03:28:33;99285.15;;;8.74;100.00
56174;BME280;42058;52.308;20.924;2024-03-29T03:31:03;99290.40;;;8.74;100.00
56174;BME280;42058;52.308;20.924;2024-03-29T03:33:30;99288.32;;;8.73;100.00
56174;BME280;42058;52.308;20.924;2024-03-29T03:35:58;99288.54;;;8.72;100.00
56174;BME280;42058;52.308;20.924;2024-03-29T03:38:25;99294.55;;;8.70;100.00
56174;BME280;42058;52.308;20.924;2024-03-29T03:40:52;99304.73;;;8.69;100.00
56174;BME280;42058;52.308;20.924;2024-03-29T03:43:20;99309.65;;;8.69;100.00
56174;BME280;42058;52.308;20.924;2024-03-29T03:45:47;99315.77;;;8.69;100.00
56174;BME280;42058;52.308;20.924;2024-03-29T03:48:15;99319.55;;;8.65;100.00
56174;BME280;42058;52.308;20.924;2024-03-29T03:50:42;99322.40;;;8.64;100.00
56174;BME280;42058;52.308;20.924;2024-03-29T03:53:09;99327.04;;;8.61;100.00
56174;BME280;42058;52.308;20.924;2024-03-29T03:55:37;99331.92;;;8.61;100.00
56174;BME280;42058;52.308;20.924;2024-03-29T03:58:04;99332.52;;;8.59;100.00
56174;BME280;42058;52.308;20.924;2024-03-29T04:00:33;99335.72;;;8.58;100.00
56174;BME280;42058;52.308;20.924;2024-03-29T04:03:00;99342.23;;;8.56;100.00
56174;BME280;42058;52.308;20.924;2024-03-29T04:05:27;99345.31;;;8.54;100.00
56174;BME280;42058;52.308;20.924;2024-03-29T04:07:55;99351.65;;;8.53;100.00
56174;BME280;42058;52.308;20.924;2024-03-29T04:10:23;99351.44;;;8.49;100.00
56174;BME280;42058;52.308;20.924;2024-03-29T04:12:50;99351.10;;;8.48;100.00
56174;BME280;42058;52.308;20.924;2024-03-29T04:15:18;99354.48;;;8.46;100.00
56174;BME280;42058;52.308;20.924;2024-03-29T04:17:45;99353.67;;;8.45;100.00
56174;BME280;42058;52.308;20.924;2024-03-29T04:20:12;99356.19;;;8.43;100.00
56174;BME280;42058;52.308;20.924;2024-03-29T04:22:40;99356.77;;;8.40;100.00
56174;BME280;42058;52.308;20.924;2024-03-29T04:25:07;99358.29;;;8.37;100.00
56174;BME280;42058;52.308;20.924;2024-03-29T04:27:35;99370.05;;;8.35;100.00
56174;BME280;42058;52.308;20.924;2024-03-29T04:30:02;99377.50;;;8.32;100.00
56174;BME280;42058;52.308;20.924;2024-03-29T04:32:30;99383.70;;;8.29;100.00
56174;BME280;42058;52.308;20.924;2024-03-29T04:34:57;99390.79;;;8.26;100.00
56174;BME280;42058;52.308;20.924;2024-03-29T04:37:25;99396.63;;;8.24;100.00
56174;BME280;42058;52.308;20.924;2024-03-29T04:39:52;99397.11;;;8.20;100.00
56174;BME280;42058;52.308;20.924;2024-03-29T04:42:19;99396.02;;;8.16;100.00
56174;BME280;42058;52.308;20.924;2024-03-29T04:44:47;99399.09;;;8.13;100.00
56174;BME280;42058;52.308;20.924;2024-03-29T04:47:14;99401.66;;;8.10;100.00
56174;BME280;42058;52.308;20.924;2024-03-29T04:49:42;99408.07;;;8.06;100.00
56174;BME280;42058;52.308;20.924;2024-03-29T04:52:09;99410.45;;;8.02;100.00
56174;BME280;42058;52.308;20.924;2024-03-29T04:54:37;99414.95;;;7.98;100.00
56174;BME280;42058;52.308;20.924;2024-03-29T04:57:04;99428.17;;;7.94;100.00
56174;BME280;42058;52.308;20.924;2024-03-29T04:59:33;99436.55;;;7.88;100.00
56174;BME280;42058;52.308;20.924;2024-03-29T05:02:01;99446.46;;;7.84;100.00
56174;BME280;42058;52.308;20.924;2024-03-29T05:04:29;99447.30;;;7.80;100.00
56174;BME280;42058;52.308;20.924;2024-03-29T05:06:57;99450.69;;;7.78;100.00
56174;BME280;42058;52.308;20.924;2024-03-29T05:09:25;99451.69;;;7.74;100.00
56174;BME280;42058;52.308;20.924;2024-03-29T05:11:53;99449.66;;;7.71;100.00
56174;BME280;42058;52.308;20.924;2024-03-29T05:14:21;99447.61;;;7.69;100.00
56174;BME280;42058;52.308;20.924;2024-03-29T05:16:49;99457.27;;;7.67;100.00
56174;BME280;42058;52.308;20.924;2024-03-29T05:19:16;99457.19;;;7.65;100.00
56174;BME280;42058;52.308;20.924;2024-03-29T05:21:44;99458.41;;;7.65;100.00
56174;BME280;42058;52.308;20.924;2024-03-29T05:24:11;99463.64;;;7.64;100.00
56174;BME280;42058;52.308;20.924;2024-03-29T05:26:39;99468.36;;;7.65;100.00
56174;BME280;42058;52.308;20.924;2024-03-29T05:29:06;99464.30;;;7.66;100.00
56174;BME280;42058;52.308;20.924;2024-03-29T05:31:34;99465.55;;;7.65;100.00
56174;BME280;42058;52.308;20.924;2024-03-29T05:34:02;99464.45;;;7.67;100.00
56174;BME280;42058;52.308;20.924;2024-03-29T05:36:30;99467.70;;;7.69;100.00
56174;BME280;42058;52.308;20.924;2024-03-29T05:38:57;99469.32;;;7.73;100.00
56174;BME280;42058;52.308;20.924;2024-03-29T05:41:25;99467.41;;;7.78;100.00
56174;BME280;42058;52.308;20.924;2024-03-29T05:43:53;99467.62;;;7.83;100.00
56174;BME280;42058;52.308;20.924;2024-03-29T05:46:20;99471.95;;;7.91;100.00
56174;BME280;42058;52.308;20.924;2024-03-29T05:48:47;99469.94;;;7.99;100.00
56174;BME280;42058;52.308;20.924;2024-03-29T05:51:15;99473.85;;;8.08;100.00
56174;BME280;42058;52.308;20.924;2024-03-29T05:53:42;99474.27;;;8.17;100.00
56174;BME280;42058;52.308;20.924;2024-03-29T05:56:09;99473.79;;;8.26;100.00
56174;BME280;42058;52.308;20.924;2024-03-29T05:58:37;99472.23;;;8.36;100.00
56174;BME280;42058;52.308;20.924;2024-03-29T06:01:04;99467.55;;;8.47;100.00
56174;BME280;42058;52.308;20.924;2024-03-29T06:03:31;99463.69;;;8.58;100.00
56174;BME280;42058;52.308;20.924;2024-03-29T06:05:59;99465.89;;;8.70;100.00
56174;BME280;42058;52.308;20.924;2024-03-29T06:08:26;99463.61;;;8.81;100.00
56174;BME280;42058;52.308;20.924;2024-03-29T06:10:54;99467.58;;;8.92;100.00
56174;BME280;42058;52.308;20.924;2024-03-29T06:13:22;99463.43;;;9.06;100.00
56174;BME280;42058;52.308;20.924;2024-03-29T06:16:08;99469.20;;;9.21;100.00
56174;BME280;42058;52.308;20.924;2024-03-29T06:18:54;99475.14;;;9.35;100.00
56174;BME280;42058;52.308;20.924;2024-03-29T06:21:22;99480.20;;;9.50;100.00
56174;BME280;42058;52.308;20.924;2024-03-29T06:23:49;99484.95;;;9.63;100.00
56174;BME280;42058;52.308;20.924;2024-03-29T06:26:16;99491.02;;;9.78;100.00
56174;BME280;42058;52.308;20.924;2024-03-29T06:28:44;99497.30;;;9.93;100.00
56174;BME280;42058;52.308;20.924;2024-03-29T06:31:11;99502.25;;;10.10;100.00
56174;BME280;42058;52.308;20.924;2024-03-29T06:33:38;99500.91;;;10.26;100.00
56174;BME280;42058;52.308;20.924;2024-03-29T06:36:06;99504.52;;;10.42;100.00
56174;BME280;42058;52.308;20.924;2024-03-29T06:38:34;99501.89;;;10.59;100.00
56174;BME280;42058;52.308;20.924;2024-03-29T06:41:01;99501.01;;;10.76;99.90
56174;BME280;42058;52.308;20.924;2024-03-29T06:43:30;99507.75;;;10.86;99.67
56174;BME280;42058;52.308;20.924;2024-03-29T06:45:58;99515.34;;;10.98;99.49
56174;BME280;42058;52.308;20.924;2024-03-29T06:48:26;99520.94;;;11.11;99.06
56174;BME280;42058;52.308;20.924;2024-03-29T06:50:53;99529.55;;;11.22;96.73
56174;BME280;42058;52.308;20.924;2024-03-29T06:53:20;99531.04;;;11.37;97.01
56174;BME280;42058;52.308;20.924;2024-03-29T06:55:48;99534.76;;;11.52;97.72
56174;BME280;42058;52.308;20.924;2024-03-29T06:58:16;99533.34;;;11.71;97.81
56174;BME280;42058;52.308;20.924;2024-03-29T07:00:46;99536.07;;;11.85;94.18
56174;BME280;42058;52.308;20.924;2024-03-29T07:03:16;99537.27;;;11.98;93.82
56174;BME280;42058;52.308;20.924;2024-03-29T07:05:50;99533.28;;;12.12;93.72
56174;BME280;42058;52.308;20.924;2024-03-29T07:08:17;99535.23;;;12.23;89.47
56174;BME280;42058;52.308;20.924;2024-03-29T07:10:45;99530.02;;;12.36;88.94
56174;BME280;42058;52.308;20.924;2024-03-29T07:13:12;99532.65;;;12.40;83.89
56174;BME280;42058;52.308;20.924;2024-03-29T07:15:40;99530.85;;;12.44;84.91
56174;BME280;42058;52.308;20.924;2024-03-29T07:18:07;99524.60;;;12.46;83.24
56174;BME280;42058;52.308;20.924;2024-03-29T07:20:35;99520.73;;;12.50;82.87
56174;BME280;42058;52.308;20.924;2024-03-29T07:23:02;99525.52;;;12.57;84.46
56174;BME280;42058;52.308;20.924;2024-03-29T07:25:29;99530.11;;;12.60;82.71
56174;BME280;42058;52.308;20.924;2024-03-29T07:27:57;99539.54;;;12.65;84.28
56174;BME280;42058;52.308;20.924;2024-03-29T07:30:24;99537.67;;;12.66;82.38
56174;BME280;42058;52.308;20.924;2024-03-29T07:32:51;99528.45;;;12.68;82.64
56174;BME280;42058;52.308;20.924;2024-03-29T07:35:19;99525.92;;;12.69;82.22
56174;BME280;42058;52.308;20.924;2024-03-29T07:37:46;99526.18;;;12.68;83.10
56174;BME280;42058;52.308;20.924;2024-03-29T07:40:16;99525.17;;;12.67;82.18
56174;BME280;42058;52.308;20.924;2024-03-29T07:42:43;99529.77;;;12.63;81.60
56174;BME280;42058;52.308;20.924;2024-03-29T07:45:11;99521.37;;;12.58;82.11
56174;BME280;42058;52.308;20.924;2024-03-29T07:47:38;99520.41;;;12.63;83.68
56174;BME280;42058;52.308;20.924;2024-03-29T07:50:06;99524.16;;;12.66;83.60
56174;BME280;42058;52.308;20.924;2024-03-29T07:52:34;99528.04;;;12.66;82.60
56174;BME280;42058;52.308;20.924;2024-03-29T07:55:02;99525.29;;;12.68;83.15
56174;BME280;42058;52.308;20.924;2024-03-29T07:57:29;99528.69;;;12.67;82.40
56174;BME280;42058;52.308;20.924;2024-03-29T07:59:58;99529.85;;;12.65;81.61
56174;BME280;42058;52.308;20.924;2024-03-29T08:02:25;99538.10;;;12.62;80.33
56174;BME280;42058;52.308;20.924;2024-03-29T08:04:55;99540.98;;;12.57;78.82
56174;BME280;42058;52.308;20.924;2024-03-29T08:07:22;99549.68;;;12.51;79.03
56174;BME280;42058;52.308;20.924;2024-03-29T08:09:50;99556.66;;;12.49;80.85
56174;BME280;42058;52.308;20.924;2024-03-29T08:12:18;99564.68;;;12.50;81.46
56174;BME280;42058;52.308;20.924;2024-03-29T08:14:45;99563.31;;;12.49;80.49
56174;BME280;42058;52.308;20.924;2024-03-29T08:17:13;99572.16;;;12.48;80.32
56174;BME280;42058;52.308;20.924;2024-03-29T08:19:41;99575.05;;;12.51;81.71
56174;BME280;42058;52.308;20.924;2024-03-29T08:22:11;99576.77;;;12.52;80.72
56174;BME280;42058;52.308;20.924;2024-03-29T08:24:38;99577.36;;;12.54;80.87
56174;BME280;42058;52.308;20.924;2024-03-29T08:27:06;99580.73;;;12.57;81.85
56174;BME280;42058;52.308;20.924;2024-03-29T08:29:33;99576.77;;;12.63;82.03
56174;BME280;42058;52.308;20.924;2024-03-29T08:32:01;99578.10;;;12.68;81.54
56174;BME280;42058;52.308;20.924;2024-03-29T08:34:30;99575.66;;;12.74;82.24
56174;BME280;42058;52.308;20.924;2024-03-29T08:37:02;99574.30;;;12.80;78.45
56174;BME280;42058;52.308;20.924;2024-03-29T08:39:31;99574.34;;;12.87;75.17
56174;BME280;42058;52.308;20.924;2024-03-29T08:41:59;99577.95;;;12.96;74.59
56174;BME280;42058;52.308;20.924;2024-03-29T08:44:26;99569.07;;;13.08;76.38
56174;BME280;42058;52.308;20.924;2024-03-29T08:46:54;99562.89;;;13.26;77.83
56174;BME280;42058;52.308;20.924;2024-03-29T08:49:24;99569.79;;;13.46;77.08
56174;BME280;42058;52.308;20.924;2024-03-29T08:51:51;99574.20;;;13.66;74.24
56174;BME280;42058;52.308;20.924;2024-03-29T08:54:19;99575.67;;;13.85;73.57
56174;BME280;42058;52.308;20.924;2024-03-29T08:56:47;99578.15;;;14.04;71.65
56174;BME280;42058;52.308;20.924;2024-03-29T08:59:14;99582.35;;;14.24;70.90
56174;BME280;42058;52.308;20.924;2024-03-29T09:01:44;99587.63;;;14.41;70.53
56174;BME280;42058;52.308;20.924;2024-03-29T09:04:12;99584.29;;;14.63;69.84
56174;BME280;42058;52.308;20.924;2024-03-29T09:06:40;99583.27;;;14.84;68.40
56174;BME280;42058;52.308;20.924;2024-03-29T09:09:07;99580.20;;;15.03;64.51
56174;BME280;42058;52.308;20.924;2024-03-29T09:11:35;99587.36;;;15.26;67.25
56174;BME280;42058;52.308;20.924;2024-03-29T09:14:03;99587.97;;;15.48;63.71
56174;BME280;42058;52.308;20.924;2024-03-29T09:16:34;99591.70;;;15.72;62.80
56174;BME280;42058;52.308;20.924;2024-03-29T09:19:01;99593.06;;;15.98;62.15
56174;BME280;42058;52.308;20.924;2024-03-29T09:21:29;99604.29;;;16.20;61.05
56174;BME280;42058;52.308;20.924;2024-03-29T09:23:57;99608.06;;;16.42;59.76
56174;BME280;42058;52.308;20.924;2024-03-29T09:26:24;99610.85;;;16.56;57.13
56174;BME280;42058;52.308;20.924;2024-03-29T09:28:51;99611.66;;;16.65;56.44
56174;BME280;42058;52.308;20.924;2024-03-29T09:31:20;99600.15;;;16.82;58.85
56174;BME280;42058;52.308;20.924;2024-03-29T09:33:47;99598.55;;;17.07;59.15
56174;BME280;42058;52.308;20.924;2024-03-29T09:36:21;99591.30;;;17.35;58.44
56174;BME280;42058;52.308;20.924;2024-03-29T09:38:50;99591.98;;;17.51;54.90
56174;BME280;42058;52.308;20.924;2024-03-29T09:41:19;99589.04;;;17.58;53.09
56174;BME280;42058;52.308;20.924;2024-03-29T09:43:47;99579.68;;;17.62;53.58
56174;BME280;42058;52.308;20.924;2024-03-29T09:46:16;99576.01;;;17.80;55.97
56174;BME280;42058;52.308;20.924;2024-03-29T09:48:44;99589.94;;;18.02;54.78
56174;BME280;42058;52.308;20.924;2024-03-29T09:51:16;99594.09;;;18.23;55.99
56174;BME280;42058;52.308;20.924;2024-03-29T09:53:43;99599.36;;;18.44;53.19
56174;BME280;42058;52.308;20.924;2024-03-29T09:56:11;99602.42;;;18.46;50.71
56174;BME280;42058;52.308;20.924;2024-03-29T09:58:38;99610.06;;;18.50;51.14
56174;BME280;42058;52.308;20.924;2024-03-29T10:01:07;99611.39;;;18.61;52.39
56174;BME280;42058;52.308;20.924;2024-03-29T10:03:39;99611.52;;;18.72;52.40
56174;BME280;42058;52.308;20.924;2024-03-29T10:06:07;99604.70;;;18.75;51.08
56174;BME280;42058;52.308;20.924;2024-03-29T10:08:40;99602.55;;;18.90;51.09
56174;BME280;42058;52.308;20.924;2024-03-29T10:11:08;99601.92;;;19.01;51.48
56174;BME280;42058;52.308;20.924;2024-03-29T10:13:35;99610.85;;;19.15;49.43
56174;BME280;42058;52.308;20.924;2024-03-29T10:16:03;99599.09;;;19.22;50.16
56174;BME280;42058;52.308;20.924;2024-03-29T10:18:31;99592.96;;;19.37;49.31
56174;BME280;42058;52.308;20.924;2024-03-29T10:20:59;99594.39;;;19.44;48.92
56174;BME280;42058;52.308;20.924;2024-03-29T10:23:28;99598.58;;;19.48;48.04
56174;BME280;42058;52.308;20.924;2024-03-29T10:25:56;99598.41;;;19.61;49.58
56174;BME280;42058;52.308;20.924;2024-03-29T10:28:31;99591.13;;;19.78;48.46
56174;BME280;42058;52.308;20.924;2024-03-29T10:31:01;99596.27;;;19.88;46.51
56174;BME280;42058;52.308;20.924;2024-03-29T10:33:31;99598.08;;;19.87;46.69
56174;BME280;42058;52.308;20.924;2024-03-29T10:36:00;99602.98;;;19.90;45.78
56174;BME280;42058;52.308;20.924;2024-03-29T10:38:28;99608.14;;;19.74;44.27
56174;BME280;42058;52.308;20.924;2024-03-29T10:40:56;99607.61;;;19.62;44.75
56174;BME280;42058;52.308;20.924;2024-03-29T10:43:24;99612.54;;;19.63;44.93
56174;BME280;42058;52.308;20.924;2024-03-29T10:45:51;99605.22;;;19.63;45.47
56174;BME280;42058;52.308;20.924;2024-03-29T10:48:21;99607.44;;;19.64;45.65
56174;BME280;42058;52.308;20.924;2024-03-29T10:50:49;99602.98;;;19.65;44.83
56174;BME280;42058;52.308;20.924;2024-03-29T10:53:18;99598.70;;;19.56;43.31
56174;BME280;42058;52.308;20.924;2024-03-29T10:55:46;99599.66;;;19.52;44.44
56174;BME280;42058;52.308;20.924;2024-03-29T10:58:15;99602.11;;;19.46;44.05
56174;BME280;42058;52.308;20.924;2024-03-29T11:00:49;99611.84;;;19.35;43.46
56174;BME280;42058;52.308;20.924;2024-03-29T11:03:41;99613.08;;;19.21;43.27
56174;BME280;42058;52.308;20.924;2024-03-29T11:06:12;99603.89;;;19.11;42.70
56174;BME280;42058;52.308;20.924;2024-03-29T11:08:42;99602.41;;;18.95;43.08
56174;BME280;42058;52.308;20.924;2024-03-29T11:11:13;99607.67;;;18.93;44.21
56174;BME280;42058;52.308;20.924;2024-03-29T11:13:52;99607.69;;;18.95;45.01
56174;BME280;42058;52.308;20.924;2024-03-29T11:16:20;99614.20;;;18.96;45.58
56174;BME280;42058;52.308;20.924;2024-03-29T11:18:48;99625.40;;;18.91;44.18
56174;BME280;42058;52.308;20.924;2024-03-29T11:21:16;99624.64;;;18.87;44.48
56174;BME280;42058;52.308;20.924;2024-03-29T11:23:52;99614.63;;;18.91;45.56
56174;BME280;42058;52.308;20.924;2024-03-29T11:26:19;99595.07;;;18.88;43.12
56174;BME280;42058;52.308;20.924;2024-03-29T11:28:51;99591.81;;;18.79;43.69
56174;BME280;42058;52.308;20.924;2024-03-29T11:31:25;99595.73;;;18.74;42.72
56174;BME280;42058;52.308;20.924;2024-03-29T11:33:52;99598.43;;;18.71;43.23
56174;BME280;42058;52.308;20.924;2024-03-29T11:36:22;99593.85;;;18.69;42.16
56174;BME280;42058;52.308;20.924;2024-03-29T11:38:56;99592.26;;;18.63;43.04
56174;BME280;42058;52.308;20.924;2024-03-29T11:41:27;99585.27;;;18.61;42.95
56174;BME280;42058;52.308;20.924;2024-03-29T11:43:56;99590.41;;;18.61;43.06
56174;BME280;42058;52.308;20.924;2024-03-29T11:46:25;99595.66;;;18.65;43.79
56174;BME280;42058;52.308;20.924;2024-03-29T11:48:52;99600.41;;;18.69;43.65
56174;BME280;42058;52.308;20.924;2024-03-29T11:51:22;99597.58;;;18.71;43.25
56174;BME280;42058;52.308;20.924;2024-03-29T11:53:51;99601.19;;;18.70;42.79
56174;BME280;42058;52.308;20.924;2024-03-29T11:56:19;99615.20;;;18.68;42.57
56174;BME280;42058;52.308;20.924;2024-03-29T11:58:48;99611.91;;;18.69;43.58
56174;BME280;42058;52.308;20.924;2024-03-29T12:01:16;99608.29;;;18.70;43.22
56174;BME280;42058;52.308;20.924;2024-03-29T12:03:43;99595.59;;;18.74;44.34
56174;BME280;42058;52.308;20.924;2024-03-29T12:06:14;99599.27;;;18.87;44.41
56174;BME280;42058;52.308;20.924;2024-03-29T12:08:42;99600.63;;;18.95;43.95
56174;BME280;42058;52.308;20.924;2024-03-29T12:11:10;99604.14;;;18.97;43.41
56174;BME280;42058;52.308;20.924;2024-03-29T12:13:37;99608.07;;;18.97;43.32
56174;BME280;42058;52.308;20.924;2024-03-29T12:16:07;99611.66;;;18.92;43.73
56174;BME280;42058;52.308;20.924;2024-03-29T12:18:35;99612.64;;;18.93;43.43
56174;BME280;42058;52.308;20.924;2024-03-29T12:21:03;99611.77;;;18.91;42.87
56174;BME280;42058;52.308;20.924;2024-03-29T12:23:31;99621.66;;;18.87;42.62
56174;BME280;42058;52.308;20.924;2024-03-29T12:26:00;99629.00;;;18.86;42.60
56174;BME280;42058;52.308;20.924;2024-03-29T12:28:27;99621.10;;;18.92;43.58
56174;BME280;42058;52.308;20.924;2024-03-29T12:30:55;99613.84;;;19.04;43.17
56174;BME280;42058;52.308;20.924;2024-03-29T12:33:23;99626.66;;;19.06;42.59
56174;BME280;42058;52.308;20.924;2024-03-29T12:35:52;99623.76;;;19.11;42.95
56174;BME280;42058;52.308;20.924;2024-03-29T12:38:22;99628.89;;;19.23;43.10
56174;BME280;42058;52.308;20.924;2024-03-29T12:40:50;99632.47;;;19.37;43.31
56174;BME280;42058;52.308;20.924;2024-03-29T12:43:22;99628.41;;;19.55;44.02
56174;BME280;42058;52.308;20.924;2024-03-29T12:45:51;99626.38;;;19.78;43.81
56174;BME280;42058;52.308;20.924;2024-03-29T12:48:20;99630.02;;;19.97;42.86
56174;BME280;42058;52.308;20.924;2024-03-29T12:50:50;99625.89;;;20.09;42.19
56174;BME280;42058;52.308;20.924;2024-03-29T12:53:18;99625.33;;;20.16;42.66
56174;BME280;42058;52.308;20.924;2024-03-29T12:55:46;99626.20;;;20.35;43.03